New Richmond, WI

03:52 PM CST del 16 Gennaio 2017 (GMT -0600)
W 7th St Neighborhood | | Change Station
Avvisi attivi: Winter Weather Advisory

Alt. 299 ft 45.12 °N, 92.57 °W | Updated 9 minutes ago

Clear
Sereno
29.3 °F
Sembra 24 °F
N
4.7
Vento Variabile Vento da NE

Oggi
Massima -- | Minima -- °F
--% Possibilità di precip.
Ieri
Massima -- | Minima -- °F
Precip. -- in
Pressione 30.06 in
Visibilità 10.0 miglia
Nuvole Sereno
Raffreddamento del vento 24 °F
Punto di rugiada 18 °F
Umidità 63%
Piovosità in
Spessore del manto nevoso Non disponibile.
7:44 AM 4:56 PM
Gobba a levante, 78% visible
METAR KRNH 162135Z AUTO 04004KT 10SM CLR M02/M08 A3006 RMK AO2 T10221079
Pressione 30.06 in
Visibilità 10.0 miglia
Nuvole Sereno
Raffreddamento del vento 24 °F
Punto di rugiada 18 °F
Umidità 63%
Piovosità in
Spessore del manto nevoso Non disponibile.
7:44 AM 4:56 PM
Gobba a levante, 78% visible
METAR KRNH 162135Z AUTO 04004KT 10SM CLR M02/M08 A3006 RMK AO2 T10221079

Get Your Daily Forecast Email!

Thanks for signing up!

Be on the lookout for a verification email in your inbox.

You'll start receiving the daily forecast at 8 AM.

×

10-Day Weather Forecast

Almanac

Astronomia

Jan. 16, 2017 Alba Tramonto
Ora attuale
Crepuscolo civile
Crepuscolo nautico
Crepuscolo astronomico
Luna
Estensione della luce visibile
Lunghezza del giorno
Tomorrow will be .
, % of the Moon is Illuminated

Gli estremi di oggi

State Highs State Lows

Community

WunderPhotos

Upload Photos

1,962,540 foto caricate!

WunderBlog® & News

Nearby

Qualità dell'aria

  Qualità dell'aria Indice AQ Inquinante
Not available.

Profondità neve

Stazione Profondità Altitudine

Attività sismica

Città  Distanza Mag. Data & Ora
Minimo Magnitudo Mostrato è 2.5.

Temperature delle acque costiere

Località Temperatura

Stations

Stazioni meteo nelle vicinanze

Ubicazione della stazione Temp. Raffreddamento del vento Punto di rugiada Umidità Vento Precip. Alt. Aggiornato Tipo
                   

Watches & Warnings

Winter Weather Advisory
Issued: 15:32 CST Jan. 16, 2017 – National Weather Service

... Winter Weather Advisory remains in effect until 6 am CST
Tuesday...

* freezing rain and sleet into this evening with a changeover to
snow during the late evening. Light freezing drizzle possible
late in the night.

* Ice accumulations of a glaze are expected along with wet snow
accumulations of up to 1.5 inches.

* Look for reduced visibilities at times.

* Plan on slippery Road conditions.

Precautionary/preparedness actions...

A Winter Weather Advisory means that periods of snow... sleet or
freezing rain will cause travel difficulties. Be prepared for
slippery roads and limited visibilities... and use caution while
driving. The latest Road conditions for the state you are calling
from can be obtained by calling 5 1 1.